Time;durP1;ratioP1;P1;durP2;ratioP2;P2;SDS_P1;SDS_P2;PMS_P1;PMS_P2;Temp;Humidity;BMP_temperature;BMP_pressure;BME280_temperature;BME280_humidity;BME280_pressure;Samples;Min_cycle;Max_cycle;Signal;HPM_P1;HPM_P2
2022/02/12 00:00:17;;;;;;;7.90;5.75;;;;;;;;;;5020100;28;20075;-77
2022/02/12 00:02:42;;;;;;;8.45;6.18;;;;;;;;;;5020150;28;20511;-77
2022/02/12 00:05:08;;;;;;;8.57;4.90;;;;;;;;;;4996874;28;20120;-77
2022/02/12 00:07:33;;;;;;;7.45;5.13;;;;;;;;;;4999787;28;20029;-77
2022/02/12 00:09:59;;;;;;;7.63;4.93;;;;;;;;;;5000384;28;20530;-77
2022/02/12 00:12:24;;;;;;;9.13;4.72;;;;;;;;;;4999687;28;20483;-77
2022/02/12 00:14:50;;;;;;;6.90;4.97;;;;;;;;;;5016596;28;20042;-77
2022/02/12 00:17:15;;;;;;;8.43;5.43;;;;;;;;;;5000349;28;20100;-77
2022/02/12 00:19:41;;;;;;;10.43;5.95;;;;;;;;;;5000317;28;20045;-77
2022/02/12 00:22:06;;;;;;;7.05;5.03;;;;;;;;;;5000248;28;20033;-77
2022/02/12 00:24:32;;;;;;;8.23;5.07;;;;;;;;;;4999759;28;20085;-76
2022/02/12 00:26:57;;;;;;;7.13;4.80;;;;;;;;;;5032009;28;20451;-77
2022/02/12 00:29:23;;;;;;;8.95;5.47;;;;;;;;;;5033393;28;20049;-77
2022/02/12 00:31:48;;;;;;;9.55;5.30;;;;;;;;;;5016176;28;20033;-77
2022/02/12 00:34:13;;;;;;;7.82;4.88;;;;;;;;;;5015879;28;20072;-77
2022/02/12 00:36:39;;;;;;;7.10;4.60;;;;;;;;;;5048847;28;20034;-77
2022/02/12 00:39:04;;;;;;;7.05;5.03;;;;;;;;;;4999340;28;20073;-77
2022/02/12 00:41:30;;;;;;;6.63;4.50;;;;;;;;;;4996823;28;20369;-77
2022/02/12 00:43:56;;;;;;;6.95;4.47;;;;;;;;;;5015917;28;20045;-77
2022/02/12 00:46:21;;;;;;;7.05;4.63;;;;;;;;;;5018786;28;20107;-77
2022/02/12 00:48:47;;;;;;;8.02;4.55;;;;;;;;;;5002779;28;20403;-77
2022/02/12 00:51:13;;;;;;;6.63;4.30;;;;;;;;;;5002914;28;20128;-77
2022/02/12 00:53:39;;;;;;;8.13;4.70;;;;;;;;;;5019359;28;20119;-77
2022/02/12 00:56:05;;;;;;;6.93;4.70;;;;;;;;;;5021459;28;20118;-77
2022/02/12 00:58:30;;;;;;;6.50;4.45;;;;;;;;;;5035620;28;20442;-77
2022/02/12 01:00:56;;;;;;;8.32;4.25;;;;;;;;;;5035681;28;20044;-77
2022/02/12 01:03:21;;;;;;;6.95;4.50;;;;;;;;;;4989098;28;20049;-77
2022/02/12 01:05:47;;;;;;;9.13;4.57;;;;;;;;;;5031891;28;20381;-77
2022/02/12 01:08:12;;;;;;;8.30;4.53;;;;;;;;;;5015401;28;20400;-77
2022/02/12 01:10:38;;;;;;;8.18;4.53;;;;;;;;;;5021313;28;20041;-77
2022/02/12 01:13:03;;;;;;;9.00;4.88;;;;;;;;;;4999065;28;20068;-77
2022/02/12 01:15:29;;;;;;;8.75;4.78;;;;;;;;;;4999348;28;20059;-77
2022/02/12 01:17:54;;;;;;;6.18;4.43;;;;;;;;;;4999009;28;20043;-77
2022/02/12 01:20:20;;;;;;;6.97;4.43;;;;;;;;;;4985517;28;20039;-77
2022/02/12 01:22:48;;;;;;;7.45;4.13;;;;;;;;;;5016809;28;20049;-77
2022/02/12 01:25:14;;;;;;;9.85;4.47;;;;;;;;;;5002792;28;20045;-77
2022/02/12 01:27:39;;;;;;;5.90;4.05;;;;;;;;;;5018397;28;20381;-77
2022/02/12 01:30:05;;;;;;;7.88;4.55;;;;;;;;;;5018070;28;20052;-77
2022/02/12 01:32:31;;;;;;;6.32;3.90;;;;;;;;;;5002375;28;20033;-77
2022/02/12 01:34:56;;;;;;;6.38;4.13;;;;;;;;;;5001583;28;20124;-77
2022/02/12 01:37:23;;;;;;;7.65;4.07;;;;;;;;;;5001392;28;20049;-77
2022/02/12 01:39:49;;;;;;;8.25;4.30;;;;;;;;;;5018023;28;20403;-76
2022/02/12 01:42:14;;;;;;;5.53;3.70;;;;;;;;;;5018124;28;20047;-77
2022/02/12 01:44:40;;;;;;;8.00;3.83;;;;;;;;;;4999977;28;20427;-77
2022/02/12 01:47:06;;;;;;;7.25;4.20;;;;;;;;;;4988714;28;20037;-77
2022/02/12 01:49:32;;;;;;;7.80;3.97;;;;;;;;;;5014475;28;20092;-77
2022/02/12 01:51:57;;;;;;;7.57;4.10;;;;;;;;;;4998010;28;20037;-77
2022/02/12 01:54:24;;;;;;;5.90;3.80;;;;;;;;;;5030851;28;20043;-77
2022/02/12 01:56:49;;;;;;;4.85;3.92;;;;;;;;;;4998319;28;20385;-77
2022/02/12 01:59:15;;;;;;;5.45;4.00;;;;;;;;;;5001160;28;20168;-77
2022/02/12 02:01:40;;;;;;;6.28;3.72;;;;;;;;;;5017905;28;20380;-77
2022/02/12 02:04:06;;;;;;;7.03;4.22;;;;;;;;;;5017777;28;20419;-77
2022/02/12 02:06:32;;;;;;;5.68;3.70;;;;;;;;;;5017570;28;20104;-77
2022/02/12 02:08:58;;;;;;;6.40;3.47;;;;;;;;;;5001646;28;20048;-77
2022/02/12 02:11:24;;;;;;;6.47;3.78;;;;;;;;;;5001119;28;20060;-77
2022/02/12 02:13:51;;;;;;;8.95;4.32;;;;;;;;;;5014047;28;20045;-77
2022/02/12 02:16:17;;;;;;;6.88;4.13;;;;;;;;;;4996397;28;20048;-77
2022/02/12 02:18:42;;;;;;;6.18;3.78;;;;;;;;;;5032484;28;20038;-77
2022/02/12 02:21:08;;;;;;;7.22;4.05;;;;;;;;;;5033892;28;20044;-77
2022/02/12 02:23:38;;;;;;;4.95;3.38;;;;;;;;;;5017748;28;20399;-77
2022/02/12 02:26:04;;;;;;;4.93;3.60;;;;;;;;;;5000838;28;20041;-77
2022/02/12 02:28:29;;;;;;;5.93;3.67;;;;;;;;;;5017553;28;20407;-77
2022/02/12 02:30:55;;;;;;;8.57;3.70;;;;;;;;;;5009419;28;20044;-77
2022/02/12 02:33:20;;;;;;;6.20;3.80;;;;;;;;;;5013788;28;20045;-77
2022/02/12 02:35:46;;;;;;;6.85;4.38;;;;;;;;;;5005845;28;20178;-77
2022/02/12 02:38:13;;;;;;;5.05;3.25;;;;;;;;;;4997187;28;20037;-77
2022/02/12 02:40:38;;;;;;;5.45;3.13;;;;;;;;;;4981569;28;20596;-77
2022/02/12 02:43:04;;;;;;;5.50;3.13;;;;;;;;;;5005949;28;20056;-77
2022/02/12 02:45:29;;;;;;;11.80;3.95;;;;;;;;;;5014327;28;20041;-77
2022/02/12 02:47:59;;;;;;;6.32;3.67;;;;;;;;;;5032801;28;20435;-77
2022/02/12 02:56:01;;;;;;;6.07;4.05;;;;;;;;;;5022466;28;20049;-77
2022/02/12 02:58:28;;;;;;;6.28;3.28;;;;;;;;;;5003419;28;20039;-77
2022/02/12 03:00:54;;;;;;;8.63;3.97;;;;;;;;;;5017459;28;20068;-77
2022/02/12 03:03:20;;;;;;;6.80;4.15;;;;;;;;;;5016918;28;20044;-77
2022/02/12 03:05:45;;;;;;;6.32;3.00;;;;;;;;;;5000991;28;20037;-77
2022/02/12 03:08:11;;;;;;;6.75;3.50;;;;;;;;;;5015963;28;20112;-77
2022/02/12 03:10:36;;;;;;;5.57;3.35;;;;;;;;;;5007888;28;20459;-77
2022/02/12 03:13:01;;;;;;;5.18;3.13;;;;;;;;;;5016677;28;20091;-77
2022/02/12 03:15:27;;;;;;;5.90;3.40;;;;;;;;;;4996843;28;20045;-77
2022/02/12 03:17:52;;;;;;;6.97;3.72;;;;;;;;;;5013628;28;20064;-77
2022/02/12 03:20:18;;;;;;;4.95;3.35;;;;;;;;;;4997278;28;20060;-77
2022/02/12 03:22:43;;;;;;;5.03;2.97;;;;;;;;;;4996702;28;20408;-77
2022/02/12 03:25:09;;;;;;;5.57;2.85;;;;;;;;;;5013581;28;20411;-77
2022/02/12 03:27:35;;;;;;;6.10;3.15;;;;;;;;;;5029485;28;20399;-77
2022/02/12 03:30:00;;;;;;;5.60;3.13;;;;;;;;;;5017064;28;20124;-77
2022/02/12 03:32:26;;;;;;;5.40;3.10;;;;;;;;;;5016930;28;20041;-77
2022/02/12 03:34:51;;;;;;;6.32;3.63;;;;;;;;;;5016718;28;20071;-77
2022/02/12 03:37:17;;;;;;;7.00;3.47;;;;;;;;;;5032942;28;20037;-77
2022/02/12 03:39:42;;;;;;;7.38;3.80;;;;;;;;;;5033165;28;20076;-77
2022/02/12 03:42:09;;;;;;;6.75;3.20;;;;;;;;;;4985120;28;20045;-77
2022/02/12 03:44:34;;;;;;;4.68;2.85;;;;;;;;;;5036864;28;20075;-77
2022/02/12 03:46:59;;;;;;;5.65;3.35;;;;;;;;;;5018860;28;20496;-77
2022/02/12 03:49:25;;;;;;;6.03;3.08;;;;;;;;;;5037299;28;20446;-77
2022/02/12 03:51:51;;;;;;;4.60;3.25;;;;;;;;;;5020327;28;20044;-76
2022/02/12 03:54:16;;;;;;;4.95;3.38;;;;;;;;;;4999813;28;20057;-77
2022/02/12 03:56:42;;;;;;;6.25;3.13;;;;;;;;;;5000416;28;20099;-76
2022/02/12 03:59:07;;;;;;;7.38;3.28;;;;;;;;;;5028019;28;20103;-77
2022/02/12 04:01:32;;;;;;;5.95;3.38;;;;;;;;;;5003785;28;20037;-77
2022/02/12 04:03:58;;;;;;;6.00;3.00;;;;;;;;;;5003096;28;20053;-77
2022/02/12 04:06:24;;;;;;;6.40;3.58;;;;;;;;;;5019571;28;20147;-76
2022/02/12 04:08:49;;;;;;;6.55;3.50;;;;;;;;;;5054457;28;20037;-77
2022/02/12 04:11:14;;;;;;;5.60;3.00;;;;;;;;;;5001680;28;20128;-77
2022/02/12 04:13:40;;;;;;;7.45;3.50;;;;;;;;;;5003854;28;20052;-77
2022/02/12 04:16:05;;;;;;;5.78;3.08;;;;;;;;;;5015441;28;20033;-75
2022/02/12 04:18:31;;;;;;;4.60;2.97;;;;;;;;;;5032895;28;20047;-75
2022/02/12 04:20:56;;;;;;;4.80;2.85;;;;;;;;;;5021353;28;20380;-76
2022/02/12 04:23:22;;;;;;;5.75;3.33;;;;;;;;;;5016501;28;20088;-75
2022/02/12 04:25:47;;;;;;;5.40;3.28;;;;;;;;;;5032593;28;20037;-75
2022/02/12 04:28:13;;;;;;;5.03;3.15;;;;;;;;;;5032700;28;20399;-75
2022/02/12 04:30:39;;;;;;;4.10;2.60;;;;;;;;;;5020845;28;20388;-75
2022/02/12 04:33:05;;;;;;;5.85;2.55;;;;;;;;;;4999912;28;20033;-75
2022/02/12 04:35:31;;;;;;;5.60;3.00;;;;;;;;;;4983344;28;20033;-75
2022/02/12 04:37:56;;;;;;;3.90;2.28;;;;;;;;;;5015735;28;20056;-75
2022/02/12 04:40:21;;;;;;;5.75;2.72;;;;;;;;;;5014475;28;20419;-75
2022/02/12 04:42:47;;;;;;;6.85;4.00;;;;;;;;;;5018903;28;20446;-75
2022/02/12 04:45:13;;;;;;;5.68;2.55;;;;;;;;;;5036608;28;20053;-75
2022/02/12 04:47:40;;;;;;;4.47;2.60;;;;;;;;;;5031816;28;20160;-75
2022/02/12 04:50:06;;;;;;;5.60;3.22;;;;;;;;;;5032270;28;20044;-75
2022/02/12 04:52:31;;;;;;;6.22;3.42;;;;;;;;;;5015720;28;20037;-75
2022/02/12 04:54:56;;;;;;;5.35;2.78;;;;;;;;;;5047670;28;20037;-75
2022/02/12 04:57:22;;;;;;;3.72;2.40;;;;;;;;;;5023135;28;20419;-75
2022/02/12 04:59:47;;;;;;;4.40;2.28;;;;;;;;;;5019053;28;20036;-75
2022/02/12 05:02:13;;;;;;;5.40;3.05;;;;;;;;;;5002465;28;20045;-75
2022/02/12 05:04:38;;;;;;;5.75;2.80;;;;;;;;;;4986093;28;20045;-75
2022/02/12 05:07:04;;;;;;;4.75;3.00;;;;;;;;;;5001242;28;20645;-75
2022/02/12 05:09:34;;;;;;;4.97;3.00;;;;;;;;;;4986696;28;20036;-75
2022/02/12 05:12:00;;;;;;;5.85;2.60;;;;;;;;;;5019928;28;20040;-75
2022/02/12 05:14:29;;;;;;;5.35;3.00;;;;;;;;;;5016773;28;20067;-75
2022/02/12 05:16:55;;;;;;;4.03;2.70;;;;;;;;;;5035438;28;20094;-75
2022/02/12 05:19:20;;;;;;;4.50;2.50;;;;;;;;;;5002380;28;20543;-75
2022/02/12 05:21:46;;;;;;;5.72;2.88;;;;;;;;;;5002497;28;20036;-75
2022/02/12 05:24:11;;;;;;;5.05;3.13;;;;;;;;;;5018435;28;20455;-75
2022/02/12 05:26:36;;;;;;;4.75;2.80;;;;;;;;;;5034781;28;20130;-75
2022/02/12 05:29:02;;;;;;;5.18;3.20;;;;;;;;;;5005529;28;20045;-75
2022/02/12 05:31:28;;;;;;;5.38;2.85;;;;;;;;;;5031223;28;20041;-75
2022/02/12 05:33:53;;;;;;;4.53;2.58;;;;;;;;;;5015091;28;20033;-75
2022/02/12 05:36:19;;;;;;;3.83;2.85;;;;;;;;;;5028684;28;20047;-75
2022/02/12 05:38:45;;;;;;;3.90;2.60;;;;;;;;;;5030865;28;20073;-75
2022/02/12 05:41:12;;;;;;;5.53;2.63;;;;;;;;;;5031289;28;20037;-75
2022/02/12 05:43:38;;;;;;;5.75;2.72;;;;;;;;;;5031566;28;20055;-75
2022/02/12 05:46:03;;;;;;;5.07;2.63;;;;;;;;;;5033698;28;20029;-75
2022/02/12 05:48:29;;;;;;;5.05;2.75;;;;;;;;;;5018494;28;20036;-75
2022/02/12 05:50:55;;;;;;;4.53;2.30;;;;;;;;;;4997709;28;20101;-75
2022/02/12 05:53:21;;;;;;;4.80;2.45;;;;;;;;;;5014687;28;20496;-75
2022/02/12 05:55:46;;;;;;;4.90;2.63;;;;;;;;;;4998676;28;20033;-75
2022/02/12 05:58:12;;;;;;;4.70;3.10;;;;;;;;;;5018292;28;20033;-75
2022/02/12 06:00:37;;;;;;;4.85;2.28;;;;;;;;;;5018193;28;20087;-75
2022/02/12 06:03:03;;;;;;;3.97;2.55;;;;;;;;;;5017342;28;20043;-75
2022/02/12 06:05:28;;;;;;;4.75;2.50;;;;;;;;;;5033821;28;20072;-75
2022/02/12 06:07:54;;;;;;;5.68;2.80;;;;;;;;;;5017634;28;20044;-75
2022/02/12 06:10:21;;;;;;;4.93;2.50;;;;;;;;;;5017841;28;20086;-75
2022/02/12 06:12:46;;;;;;;4.95;2.65;;;;;;;;;;5033892;28;20044;-75
2022/02/12 06:15:12;;;;;;;4.18;2.50;;;;;;;;;;5034135;28;20116;-75
2022/02/12 06:17:38;;;;;;;5.10;3.17;;;;;;;;;;5001313;28;20127;-75
2022/02/12 06:20:04;;;;;;;3.97;2.67;;;;;;;;;;5033963;28;20526;-75
2022/02/12 06:22:29;;;;;;;5.75;2.35;;;;;;;;;;5001373;28;20037;-75
2022/02/12 06:24:55;;;;;;;4.25;2.20;;;;;;;;;;5017440;28;20029;-75
2022/02/12 06:27:20;;;;;;;4.30;2.22;;;;;;;;;;4994067;28;20574;-75
2022/02/12 06:29:46;;;;;;;4.35;2.40;;;;;;;;;;4997346;28;20037;-74
2022/02/12 06:32:11;;;;;;;4.05;2.60;;;;;;;;;;5016956;28;20104;-73
2022/02/12 06:34:37;;;;;;;6.65;2.60;;;;;;;;;;5031742;28;20043;-74
2022/02/12 06:37:03;;;;;;;4.63;2.45;;;;;;;;;;5017056;28;20037;-74
2022/02/12 06:39:28;;;;;;;4.20;2.10;;;;;;;;;;5032421;28;20061;-73
2022/02/12 06:41:53;;;;;;;6.22;2.40;;;;;;;;;;5031508;28;20048;-74
2022/02/12 06:44:20;;;;;;;5.55;2.50;;;;;;;;;;5030426;28;20042;-73
2022/02/12 06:46:45;;;;;;;5.40;2.90;;;;;;;;;;5046572;28;20120;-75
2022/02/12 06:49:11;;;;;;;5.18;2.40;;;;;;;;;;5035810;28;20060;-76
2022/02/12 06:51:36;;;;;;;5.65;2.75;;;;;;;;;;5025222;28;20043;-76
2022/02/12 06:54:03;;;;;;;5.22;2.50;;;;;;;;;;5032730;28;20045;-76
2022/02/12 06:56:28;;;;;;;5.63;2.40;;;;;;;;;;5014076;28;20037;-75
2022/02/12 06:58:54;;;;;;;3.42;2.13;;;;;;;;;;5028555;28;20037;-76
2022/02/12 07:01:20;;;;;;;5.13;2.20;;;;;;;;;;5024640;28;20045;-75
2022/02/12 07:03:45;;;;;;;4.30;2.47;;;;;;;;;;5008021;28;20060;-75
2022/02/12 07:06:11;;;;;;;5.53;2.70;;;;;;;;;;5011319;28;20099;-76
2022/02/12 07:08:36;;;;;;;4.70;2.35;;;;;;;;;;5028223;28;20033;-75
2022/02/12 07:11:02;;;;;;;5.30;2.42;;;;;;;;;;5028251;28;20113;-75
2022/02/12 07:13:27;;;;;;;6.45;2.40;;;;;;;;;;5035359;28;20045;-76
2022/02/12 07:15:54;;;;;;;6.57;2.80;;;;;;;;;;5030611;28;20053;-76
2022/02/12 07:18:21;;;;;;;6.03;2.50;;;;;;;;;;5016765;28;20037;-76
2022/02/12 07:20:46;;;;;;;5.25;2.50;;;;;;;;;;5027584;28;20514;-76
2022/02/12 07:23:12;;;;;;;3.95;2.17;;;;;;;;;;5018893;28;20119;-74
2022/02/12 07:25:37;;;;;;;7.35;2.42;;;;;;;;;;5008425;28;20120;-75
2022/02/12 07:28:03;;;;;;;6.35;2.90;;;;;;;;;;5000507;28;20057;-75
2022/02/12 07:30:29;;;;;;;4.57;2.20;;;;;;;;;;5017615;28;20034;-74
2022/02/12 07:32:55;;;;;;;6.80;2.45;;;;;;;;;;5033567;28;20040;-74
2022/02/12 07:35:20;;;;;;;6.35;2.65;;;;;;;;;;5033570;28;20065;-75
2022/02/12 07:37:47;;;;;;;5.75;3.20;;;;;;;;;;5016749;28;20399;-75
2022/02/12 07:40:13;;;;;;;4.72;2.55;;;;;;;;;;5033308;28;20095;-74
2022/02/12 07:42:39;;;;;;;6.30;2.53;;;;;;;;;;5016393;28;20472;-75
2022/02/12 07:45:05;;;;;;;6.72;2.67;;;;;;;;;;5017817;28;20044;-75
2022/02/12 07:47:30;;;;;;;3.90;2.13;;;;;;;;;;5035066;28;20057;-75
2022/02/12 07:49:56;;;;;;;5.53;2.42;;;;;;;;;;5020145;28;20473;-75
2022/02/12 07:52:21;;;;;;;4.65;2.45;;;;;;;;;;5021132;28;20115;-75
2022/02/12 07:54:47;;;;;;;4.78;2.83;;;;;;;;;;5020347;28;20032;-75
2022/02/12 07:57:13;;;;;;;4.38;2.45;;;;;;;;;;5020078;28;20083;-75
2022/02/12 07:59:38;;;;;;;4.72;2.60;;;;;;;;;;5017138;28;20119;-76
2022/02/12 08:02:04;;;;;;;6.50;2.88;;;;;;;;;;5019909;28;20037;-76
2022/02/12 08:04:30;;;;;;;4.85;2.25;;;;;;;;;;5001582;28;20033;-77
2022/02/12 08:09:39;;;;;;;7.13;2.92;;;;;;;;;;5002646;28;20034;-76
2022/02/12 08:12:14;;;;;;;5.95;2.78;;;;;;;;;;4999959;28;20037;-77
2022/02/12 08:14:45;;;;;;;6.85;2.53;;;;;;;;;;4986552;28;20160;-77
2022/02/12 08:17:11;;;;;;;3.97;2.30;;;;;;;;;;4984612;28;20025;-77
2022/02/12 08:19:37;;;;;;;10.32;3.22;;;;;;;;;;4984040;28;20080;-77
2022/02/12 08:22:04;;;;;;;8.25;2.78;;;;;;;;;;4999807;28;20415;-77
2022/02/12 08:24:30;;;;;;;6.50;2.80;;;;;;;;;;4999987;28;20038;-77
2022/02/12 08:26:56;;;;;;;7.82;2.83;;;;;;;;;;4983097;28;20025;-77
2022/02/12 08:29:21;;;;;;;8.88;2.67;;;;;;;;;;4998969;28;20069;-77
2022/02/12 08:31:47;;;;;;;9.05;3.00;;;;;;;;;;5000256;28;20041;-77
2022/02/12 08:34:13;;;;;;;9.95;3.50;;;;;;;;;;5015819;28;20041;-77
2022/02/12 08:36:39;;;;;;;9.93;3.67;;;;;;;;;;4983192;28;20029;-77
2022/02/12 08:39:05;;;;;;;9.80;3.67;;;;;;;;;;4983622;28;20056;-77
2022/02/12 08:41:30;;;;;;;7.43;3.72;;;;;;;;;;5015747;28;20165;-77
2022/02/12 08:43:56;;;;;;;9.10;3.55;;;;;;;;;;4999950;28;20087;-76
2022/02/12 08:46:21;;;;;;;9.60;3.53;;;;;;;;;;4983820;28;20037;-76
2022/02/12 08:48:47;;;;;;;9.73;3.83;;;;;;;;;;5016103;28;20060;-77
2022/02/12 08:51:12;;;;;;;6.78;2.85;;;;;;;;;;4999441;28;20099;-76
2022/02/12 08:53:37;;;;;;;7.90;3.53;;;;;;;;;;5016094;28;20041;-76
2022/02/12 08:56:04;;;;;;;10.65;4.43;;;;;;;;;;4999141;28;20044;-76
2022/02/12 08:58:30;;;;;;;13.30;4.55;;;;;;;;;;5003104;28;20029;-76
2022/02/12 09:00:55;;;;;;;10.95;3.83;;;;;;;;;;5002663;28;20112;-76
2022/02/12 09:03:21;;;;;;;14.07;4.00;;;;;;;;;;5053174;28;20068;-76
2022/02/12 09:05:46;;;;;;;11.20;3.75;;;;;;;;;;5002496;28;20045;-76
2022/02/12 09:08:12;;;;;;;16.23;4.22;;;;;;;;;;5018863;28;20411;-77
2022/02/12 09:10:38;;;;;;;10.55;3.55;;;;;;;;;;5017851;28;20037;-76
2022/02/12 09:13:03;;;;;;;13.88;5.53;;;;;;;;;;5000670;28;20235;-76
2022/02/12 09:15:29;;;;;;;14.88;9.90;;;;;;;;;;5017042;28;20032;-76
2022/02/12 09:17:54;;;;;;;26.02;17.33;;;;;;;;;;5000529;28;20060;-76
2022/02/12 09:20:20;;;;;;;25.77;16.65;;;;;;;;;;4996991;28;20084;-76
2022/02/12 09:22:45;;;;;;;26.00;15.80;;;;;;;;;;5013278;28;20037;-76
2022/02/12 09:25:12;;;;;;;28.35;15.18;;;;;;;;;;5013219;28;20104;-76
2022/02/12 09:27:38;;;;;;;24.73;15.43;;;;;;;;;;4998646;28;20053;-77
2022/02/12 09:30:04;;;;;;;23.33;14.30;;;;;;;;;;4982943;28;20085;-76
2022/02/12 09:32:29;;;;;;;25.15;14.73;;;;;;;;;;4998413;28;20056;-76
2022/02/12 09:34:55;;;;;;;23.50;13.63;;;;;;;;;;4998085;28;20080;-76
2022/02/12 09:37:20;;;;;;;21.70;14.02;;;;;;;;;;4982120;28;20045;-76
2022/02/12 09:39:46;;;;;;;27.45;12.90;;;;;;;;;;5014262;28;20408;-76
2022/02/12 09:42:11;;;;;;;19.10;12.13;;;;;;;;;;4982670;28;20045;-76
2022/02/12 09:44:40;;;;;;;20.73;12.35;;;;;;;;;;5014782;28;20033;-76
2022/02/12 09:47:47;;;;;;;20.35;14.98;;;;;;;;;;5014553;28;20051;-76
2022/02/12 09:50:14;;;;;;;21.55;12.82;;;;;;;;;;4971101;28;20113;-76
2022/02/12 09:52:45;;;;;;;21.83;12.20;;;;;;;;;;4987810;28;20052;-76
2022/02/12 09:55:11;;;;;;;16.85;11.02;;;;;;;;;;4984000;28;20030;-76
2022/02/12 09:57:37;;;;;;;17.10;12.10;;;;;;;;;;4998498;28;20403;-76
2022/02/12 10:00:05;;;;;;;16.77;10.77;;;;;;;;;;5016887;28;20041;-76
2022/02/12 10:02:31;;;;;;;14.57;10.02;;;;;;;;;;5018237;28;20033;-76
2022/02/12 10:05:19;;;;;;;15.23;9.13;;;;;;;;;;5001317;28;20511;-75
2022/02/12 10:07:46;;;;;;;15.73;9.30;;;;;;;;;;5051492;28;20037;-75
2022/02/12 10:10:13;;;;;;;17.85;9.60;;;;;;;;;;5017646;28;20107;-75
2022/02/12 10:12:38;;;;;;;12.38;8.82;;;;;;;;;;5017620;28;20580;-76
2022/02/12 10:15:04;;;;;;;12.55;7.97;;;;;;;;;;5017520;28;20037;-76
2022/02/12 10:17:30;;;;;;;13.93;7.93;;;;;;;;;;5017929;28;20048;-75
2022/02/12 10:19:55;;;;;;;12.82;7.32;;;;;;;;;;5031981;28;20037;-76
2022/02/12 10:22:21;;;;;;;13.35;6.47;;;;;;;;;;5014151;28;20157;-75
2022/02/12 10:25:00;;;;;;;9.85;6.90;;;;;;;;;;5030541;28;20411;-76
2022/02/12 10:27:26;;;;;;;14.10;7.07;;;;;;;;;;5014453;28;20040;-75
2022/02/12 10:29:52;;;;;;;13.50;7.43;;;;;;;;;;5014309;28;20176;-76
2022/02/12 10:32:19;;;;;;;11.55;6.43;;;;;;;;;;5014319;28;20542;-75
2022/02/12 10:34:45;;;;;;;12.93;6.15;;;;;;;;;;4997373;28;20446;-76
2022/02/12 10:37:12;;;;;;;9.85;6.05;;;;;;;;;;5013391;28;20033;-75
2022/02/12 10:39:48;;;;;;;9.10;5.88;;;;;;;;;;5014360;28;20499;-76
2022/02/12 10:42:16;;;;;;;10.43;6.20;;;;;;;;;;5030470;28;20042;-75
2022/02/12 10:44:42;;;;;;;10.55;5.55;;;;;;;;;;5014210;28;20461;-75
2022/02/12 10:47:08;;;;;;;11.98;5.90;;;;;;;;;;5013422;28;20069;-76
2022/02/12 10:49:35;;;;;;;13.07;5.38;;;;;;;;;;5030599;28;20037;-76
2022/02/12 10:52:00;;;;;;;11.82;5.32;;;;;;;;;;5013001;28;20065;-75
2022/02/12 10:54:25;;;;;;;8.65;5.43;;;;;;;;;;5013708;28;20123;-76
2022/02/12 10:56:52;;;;;;;9.07;5.55;;;;;;;;;;4997430;28;20033;-76
2022/02/12 10:59:19;;;;;;;7.97;5.05;;;;;;;;;;5010064;28;20117;-76
2022/02/12 11:01:44;;;;;;;9.98;4.82;;;;;;;;;;5033850;28;20087;-76
2022/02/12 11:04:10;;;;;;;7.93;4.80;;;;;;;;;;5017203;28;20041;-75
2022/02/12 11:06:35;;;;;;;9.13;4.82;;;;;;;;;;5016287;28;20450;-76
2022/02/12 11:09:02;;;;;;;6.07;3.78;;;;;;;;;;5017307;28;20052;-76
2022/02/12 11:11:27;;;;;;;9.05;5.05;;;;;;;;;;5016726;28;20045;-76
2022/02/12 11:13:53;;;;;;;8.98;4.32;;;;;;;;;;5000669;28;20043;-76
2022/02/12 11:16:18;;;;;;;10.07;5.10;;;;;;;;;;5033388;28;20049;-76
2022/02/12 11:18:44;;;;;;;7.35;3.92;;;;;;;;;;5000488;28;20029;-76
2022/02/12 11:21:09;;;;;;;7.80;4.20;;;;;;;;;;5016501;28;20041;-76
2022/02/12 11:23:35;;;;;;;6.65;3.42;;;;;;;;;;5000372;28;20041;-76
2022/02/12 11:26:03;;;;;;;7.68;3.90;;;;;;;;;;5016811;28;20452;-76
2022/02/12 11:28:30;;;;;;;8.68;4.15;;;;;;;;;;5050824;28;20511;-76
2022/02/12 11:31:34;;;;;;;9.60;3.55;;;;;;;;;;5017174;28;20037;-76
2022/02/12 11:34:06;;;;;;;6.22;3.67;;;;;;;;;;4937389;28;20035;-76
2022/02/12 11:36:31;;;;;;;8.02;3.38;;;;;;;;;;4973406;28;20536;-76
2022/02/12 11:39:12;;;;;;;7.22;3.80;;;;;;;;;;4971642;28;20045;-76
2022/02/12 11:41:47;;;;;;;6.30;3.25;;;;;;;;;;5017365;28;20048;-76
2022/02/12 11:44:43;;;;;;;8.32;3.10;;;;;;;;;;5016691;28;20045;-76
2022/02/12 11:47:09;;;;;;;9.02;3.13;;;;;;;;;;5050927;28;20037;-76
2022/02/12 11:49:36;;;;;;;7.05;2.88;;;;;;;;;;5016444;28;20044;-76
2022/02/12 11:52:04;;;;;;;9.00;3.72;;;;;;;;;;5016925;28;20558;-76
2022/02/12 11:54:49;;;;;;;7.97;3.17;;;;;;;;;;5016781;28;20426;-75
2022/02/12 11:57:27;;;;;;;8.75;3.20;;;;;;;;;;5017391;28;20043;-75
2022/02/12 11:59:59;;;;;;;9.13;3.10;;;;;;;;;;5001421;28;20411;-76
2022/02/12 12:02:37;;;;;;;5.68;2.50;;;;;;;;;;5033034;28;20075;-76
2022/02/12 12:05:24;;;;;;;6.30;2.67;;;;;;;;;;5036047;28;20067;-76
2022/02/12 12:07:59;;;;;;;6.03;2.92;;;;;;;;;;5020628;28;20040;-76
2022/02/12 12:10:26;;;;;;;7.13;2.75;;;;;;;;;;5036562;28;20040;-76
2022/02/12 12:12:51;;;;;;;8.20;2.95;;;;;;;;;;5003739;28;20056;-76
2022/02/12 12:15:21;;;;;;;8.80;2.80;;;;;;;;;;5003814;28;20041;-76
2022/02/12 12:18:00;;;;;;;5.55;2.50;;;;;;;;;;5003617;28;20079;-76
2022/02/12 12:20:37;;;;;;;7.15;3.65;;;;;;;;;;5019398;28;20037;-77
2022/02/12 12:23:10;;;;;;;11.10;3.42;;;;;;;;;;5000481;28;20048;-78
2022/02/12 12:26:02;;;;;;;6.53;2.53;;;;;;;;;;4993543;28;20041;-77
2022/02/12 12:28:28;;;;;;;10.43;2.22;;;;;;;;;;5015873;28;20041;-77
2022/02/12 12:30:54;;;;;;;7.85;2.58;;;;;;;;;;5014657;28;20095;-78
2022/02/12 12:33:21;;;;;;;6.93;2.45;;;;;;;;;;4970113;28;20419;-78
2022/02/12 12:35:54;;;;;;;4.85;2.10;;;;;;;;;;5000841;28;20040;-78
2022/02/12 12:38:19;;;;;;;5.03;2.20;;;;;;;;;;5017762;28;20067;-78
2022/02/12 12:40:45;;;;;;;6.35;2.22;;;;;;;;;;4997846;28;20116;-78
2022/02/12 12:43:14;;;;;;;6.22;2.83;;;;;;;;;;4989878;28;20045;-78
2022/02/12 12:45:41;;;;;;;6.80;2.22;;;;;;;;;;4998647;28;20084;-78
2022/02/12 12:48:06;;;;;;;10.50;2.67;;;;;;;;;;4999498;28;20030;-78
2022/02/12 12:50:40;;;;;;;7.90;2.95;;;;;;;;;;4998425;28;20507;-78
2022/02/12 12:53:07;;;;;;;6.47;2.35;;;;;;;;;;5033739;28;20053;-78
2022/02/12 12:55:32;;;;;;;6.25;2.15;;;;;;;;;;5018701;28;20231;-78
2022/02/12 12:57:58;;;;;;;7.85;2.63;;;;;;;;;;5018862;28;20083;-78
2022/02/12 13:00:24;;;;;;;5.47;2.25;;;;;;;;;;4996942;28;20030;-77
2022/02/12 13:02:54;;;;;;;5.28;1.90;;;;;;;;;;5002648;28;20096;-78
2022/02/12 13:05:21;;;;;;;6.97;2.53;;;;;;;;;;5007501;28;20048;-78
2022/02/12 13:07:47;;;;;;;8.48;2.38;;;;;;;;;;5004656;28;20037;-78
2022/02/12 13:10:12;;;;;;;6.20;1.90;;;;;;;;;;5016597;28;20046;-78
2022/02/12 13:12:38;;;;;;;4.63;2.03;;;;;;;;;;4998718;28;20504;-78
2022/02/12 13:15:04;;;;;;;8.13;1.92;;;;;;;;;;5015597;28;20033;-78
2022/02/12 13:17:31;;;;;;;6.03;2.22;;;;;;;;;;5031677;28;20052;-78
2022/02/12 13:20:03;;;;;;;6.60;2.25;;;;;;;;;;5031830;28;20037;-78
2022/02/12 13:22:32;;;;;;;4.65;2.08;;;;;;;;;;4999115;28;20457;-78
2022/02/12 13:24:57;;;;;;;5.97;1.75;;;;;;;;;;4982447;28;20030;-78
2022/02/12 13:27:27;;;;;;;6.53;1.90;;;;;;;;;;4998048;28;20050;-78
2022/02/12 13:30:06;;;;;;;6.82;2.03;;;;;;;;;;4998608;28;20037;-78
2022/02/12 13:32:45;;;;;;;6.60;2.30;;;;;;;;;;4993308;28;20037;-78
2022/02/12 13:35:12;;;;;;;7.82;1.90;;;;;;;;;;4999723;28;20033;-78
2022/02/12 13:37:39;;;;;;;9.77;1.80;;;;;;;;;;4982490;28;20038;-78
2022/02/12 13:40:07;;;;;;;7.30;2.03;;;;;;;;;;4982825;28;20522;-78
2022/02/12 13:42:33;;;;;;;7.03;2.15;;;;;;;;;;5014794;28;20037;-78
2022/02/12 13:44:59;;;;;;;5.82;1.95;;;;;;;;;;5030314;28;20032;-78
2022/02/12 13:47:25;;;;;;;4.95;1.35;;;;;;;;;;4985582;28;20028;-78
2022/02/12 13:49:51;;;;;;;8.07;2.15;;;;;;;;;;4983913;28;20031;-78
2022/02/12 13:52:20;;;;;;;7.05;2.05;;;;;;;;;;5018406;28;20041;-77
2022/02/12 13:54:46;;;;;;;6.90;1.60;;;;;;;;;;5020288;28;20436;-78
2022/02/12 13:57:13;;;;;;;5.97;1.88;;;;;;;;;;5030930;28;20052;-77
2022/02/12 13:59:38;;;;;;;5.95;2.00;;;;;;;;;;4998011;28;20056;-77
2022/02/12 14:02:04;;;;;;;6.57;1.80;;;;;;;;;;4998653;28;20069;-78
2022/02/12 14:04:29;;;;;;;8.50;1.92;;;;;;;;;;4981611;28;20096;-78
2022/02/12 14:06:55;;;;;;;9.38;1.95;;;;;;;;;;4997697;28;20253;-78
2022/02/12 14:09:20;;;;;;;9.35;1.88;;;;;;;;;;4998730;28;20044;-77
2022/02/12 14:11:47;;;;;;;13.30;2.28;;;;;;;;;;4983521;28;20121;-74
2022/02/12 14:14:13;;;;;;;6.07;1.70;;;;;;;;;;5017435;28;20041;-76
2022/02/12 14:16:39;;;;;;;12.50;2.25;;;;;;;;;;5018103;28;20037;-74
2022/02/12 14:19:04;;;;;;;6.07;1.65;;;;;;;;;;5031196;28;20491;-76
2022/02/12 14:21:31;;;;;;;4.78;1.80;;;;;;;;;;5025429;28;20037;-75
2022/02/12 14:23:56;;;;;;;6.38;2.05;;;;;;;;;;4998059;28;20451;-76
2022/02/12 14:26:23;;;;;;;9.00;1.98;;;;;;;;;;5013344;28;20041;-76
2022/02/12 14:28:49;;;;;;;5.97;1.92;;;;;;;;;;5013524;28;20389;-76
2022/02/12 14:31:14;;;;;;;8.10;1.95;;;;;;;;;;5014574;28;20080;-76
2022/02/12 14:33:40;;;;;;;6.88;1.55;;;;;;;;;;4997798;28;20038;-76
2022/02/12 14:36:05;;;;;;;6.10;1.70;;;;;;;;;;5013702;28;20412;-75
2022/02/12 14:38:31;;;;;;;9.80;1.75;;;;;;;;;;4998077;28;20511;-76
2022/02/12 14:40:57;;;;;;;5.45;1.50;;;;;;;;;;5001831;28;20045;-76
2022/02/12 14:43:23;;;;;;;9.75;2.03;;;;;;;;;;5010849;28;20052;-76
2022/02/12 14:45:48;;;;;;;8.63;2.53;;;;;;;;;;4997573;28;20416;-76